sensor_id;sensor_type;location;lat;lon;timestamp;temperature;humidity
16305;DHT22;8261;47.678;-122.174;2022-08-21T00:00:11;27.80;99.90
16305;DHT22;8261;47.678;-122.174;2022-08-21T00:03:10;27.80;99.90
16305;DHT22;8261;47.678;-122.174;2022-08-21T00:06:03;28.00;99.90
16305;DHT22;8261;47.678;-122.174;2022-08-21T00:08:41;28.20;99.90
16305;DHT22;8261;47.678;-122.174;2022-08-21T00:11:15;28.10;99.90
16305;DHT22;8261;47.678;-122.174;2022-08-21T00:13:48;28.50;99.90
16305;DHT22;8261;47.678;-122.174;2022-08-21T00:16:19;28.60;99.90
16305;DHT22;8261;47.678;-122.174;2022-08-21T00:19:04;28.10;99.90
16305;DHT22;8261;47.678;-122.174;2022-08-21T00:21:40;27.80;99.90
16305;DHT22;8261;47.678;-122.174;2022-08-21T00:24:12;27.90;99.90
16305;DHT22;8261;47.678;-122.174;2022-08-21T00:26:45;27.80;99.90
16305;DHT22;8261;47.678;-122.174;2022-08-21T00:29:17;27.80;99.90
16305;DHT22;8261;47.678;-122.174;2022-08-21T00:31:48;28.10;99.90
16305;DHT22;8261;47.678;-122.174;2022-08-21T00:34:20;28.30;99.90
16305;DHT22;8261;47.678;-122.174;2022-08-21T00:36:53;28.00;99.90
16305;DHT22;8261;47.678;-122.174;2022-08-21T00:39:34;27.90;99.90
16305;DHT22;8261;47.678;-122.174;2022-08-21T00:42:08;28.00;99.90
16305;DHT22;8261;47.678;-122.174;2022-08-21T00:44:43;28.00;99.90
16305;DHT22;8261;47.678;-122.174;2022-08-21T00:47:15;27.80;99.90
16305;DHT22;8261;47.678;-122.174;2022-08-21T00:49:48;27.90;99.90
16305;DHT22;8261;47.678;-122.174;2022-08-21T00:52:34;27.70;99.90
16305;DHT22;8261;47.678;-122.174;2022-08-21T00:55:33;27.40;99.90
16305;DHT22;8261;47.678;-122.174;2022-08-21T00:58:44;27.40;99.90
16305;DHT22;8261;47.678;-122.174;2022-08-21T01:01:30;27.60;99.90
16305;DHT22;8261;47.678;-122.174;2022-08-21T01:04:07;27.40;99.90
16305;DHT22;8261;47.678;-122.174;2022-08-21T01:06:55;27.30;99.90
16305;DHT22;8261;47.678;-122.174;2022-08-21T01:09:27;27.40;99.90
16305;DHT22;8261;47.678;-122.174;2022-08-21T01:12:18;27.60;99.90
16305;DHT22;8261;47.678;-122.174;2022-08-21T01:14:55;28.10;99.90
16305;DHT22;8261;47.678;-122.174;2022-08-21T01:17:38;28.30;99.90
16305;DHT22;8261;47.678;-122.174;2022-08-21T01:20:11;28.70;99.90
16305;DHT22;8261;47.678;-122.174;2022-08-21T01:22:49;28.70;99.90
16305;DHT22;8261;47.678;-122.174;2022-08-21T01:25:21;28.60;99.90
16305;DHT22;8261;47.678;-122.174;2022-08-21T01:27:53;28.50;99.90
16305;DHT22;8261;47.678;-122.174;2022-08-21T01:30:26;28.60;99.90
16305;DHT22;8261;47.678;-122.174;2022-08-21T01:33:15;28.60;99.90
16305;DHT22;8261;47.678;-122.174;2022-08-21T01:36:12;28.20;99.90
16305;DHT22;8261;47.678;-122.174;2022-08-21T01:42:12;27.20;99.90
16305;DHT22;8261;47.678;-122.174;2022-08-21T01:44:58;26.40;99.90
16305;DHT22;8261;47.678;-122.174;2022-08-21T01:47:30;26.10;99.90
16305;DHT22;8261;47.678;-122.174;2022-08-21T01:50:16;26.00;99.90
16305;DHT22;8261;47.678;-122.174;2022-08-21T01:52:49;26.00;99.90
16305;DHT22;8261;47.678;-122.174;2022-08-21T01:55:35;26.00;99.90
16305;DHT22;8261;47.678;-122.174;2022-08-21T01:58:24;25.90;99.90
16305;DHT22;8261;47.678;-122.174;2022-08-21T02:00:57;25.40;99.90
16305;DHT22;8261;47.678;-122.174;2022-08-21T02:03:46;25.20;99.90
16305;DHT22;8261;47.678;-122.174;2022-08-21T02:06:18;25.00;99.90
16305;DHT22;8261;47.678;-122.174;2022-08-21T02:09:08;25.00;99.90
16305;DHT22;8261;47.678;-122.174;2022-08-21T02:11:41;24.90;99.90
16305;DHT22;8261;47.678;-122.174;2022-08-21T02:14:42;24.90;99.90
16305;DHT22;8261;47.678;-122.174;2022-08-21T02:17:13;24.80;99.90
16305;DHT22;8261;47.678;-122.174;2022-08-21T02:19:44;24.70;99.90
16305;DHT22;8261;47.678;-122.174;2022-08-21T02:22:15;24.70;99.90
16305;DHT22;8261;47.678;-122.174;2022-08-21T02:24:47;24.70;99.90
16305;DHT22;8261;47.678;-122.174;2022-08-21T02:27:22;24.70;99.90
16305;DHT22;8261;47.678;-122.174;2022-08-21T02:30:12;24.60;99.90
16305;DHT22;8261;47.678;-122.174;2022-08-21T02:32:47;24.60;99.90
16305;DHT22;8261;47.678;-122.174;2022-08-21T02:35:19;24.40;99.90
16305;DHT22;8261;47.678;-122.174;2022-08-21T02:37:57;24.20;99.90
16305;DHT22;8261;47.678;-122.174;2022-08-21T02:40:41;24.20;99.90
16305;DHT22;8261;47.678;-122.174;2022-08-21T02:43:20;24.10;99.90
16305;DHT22;8261;47.678;-122.174;2022-08-21T02:46:19;24.10;99.90
16305;DHT22;8261;47.678;-122.174;2022-08-21T02:48:53;24.10;99.90
16305;DHT22;8261;47.678;-122.174;2022-08-21T02:51:25;24.00;99.90
16305;DHT22;8261;47.678;-122.174;2022-08-21T02:53:57;23.80;99.90
16305;DHT22;8261;47.678;-122.174;2022-08-21T02:56:29;23.80;99.90
16305;DHT22;8261;47.678;-122.174;2022-08-21T02:59:00;23.70;99.90
16305;DHT22;8261;47.678;-122.174;2022-08-21T03:01:36;23.70;99.90
16305;DHT22;8261;47.678;-122.174;2022-08-21T03:04:09;23.60;99.90
16305;DHT22;8261;47.678;-122.174;2022-08-21T03:06:42;23.50;99.90
16305;DHT22;8261;47.678;-122.174;2022-08-21T03:09:43;23.50;99.90
16305;DHT22;8261;47.678;-122.174;2022-08-21T03:12:35;23.40;99.90
16305;DHT22;8261;47.678;-122.174;2022-08-21T03:15:10;23.30;99.90
16305;DHT22;8261;47.678;-122.174;2022-08-21T03:17:45;23.10;99.90
16305;DHT22;8261;47.678;-122.174;2022-08-21T03:20:19;23.00;99.90
16305;DHT22;8261;47.678;-122.174;2022-08-21T03:22:53;22.90;99.90
16305;DHT22;8261;47.678;-122.174;2022-08-21T03:25:37;22.80;99.90
16305;DHT22;8261;47.678;-122.174;2022-08-21T03:28:21;22.80;99.90
16305;DHT22;8261;47.678;-122.174;2022-08-21T03:30:54;22.70;99.90
16305;DHT22;8261;47.678;-122.174;2022-08-21T03:33:28;22.60;99.90
16305;DHT22;8261;47.678;-122.174;2022-08-21T03:36:06;22.50;99.90
16305;DHT22;8261;47.678;-122.174;2022-08-21T03:38:42;22.50;99.90
16305;DHT22;8261;47.678;-122.174;2022-08-21T03:41:14;22.40;99.90
16305;DHT22;8261;47.678;-122.174;2022-08-21T03:43:55;22.30;99.90
16305;DHT22;8261;47.678;-122.174;2022-08-21T03:46:28;22.30;99.90
16305;DHT22;8261;47.678;-122.174;2022-08-21T03:52:16;22.20;99.90
16305;DHT22;8261;47.678;-122.174;2022-08-21T03:54:47;22.10;99.90
16305;DHT22;8261;47.678;-122.174;2022-08-21T03:57:19;22.00;99.90
16305;DHT22;8261;47.678;-122.174;2022-08-21T03:59:50;22.00;99.90
16305;DHT22;8261;47.678;-122.174;2022-08-21T04:08:12;21.80;99.90
16305;DHT22;8261;47.678;-122.174;2022-08-21T04:11:11;21.80;99.90
16305;DHT22;8261;47.678;-122.174;2022-08-21T04:13:59;21.80;99.90
16305;DHT22;8261;47.678;-122.174;2022-08-21T04:16:32;21.70;99.90
16305;DHT22;8261;47.678;-122.174;2022-08-21T04:19:32;21.60;99.90
16305;DHT22;8261;47.678;-122.174;2022-08-21T04:22:32;21.50;99.90
16305;DHT22;8261;47.678;-122.174;2022-08-21T04:25:45;21.50;99.90
16305;DHT22;8261;47.678;-122.174;2022-08-21T04:28:31;21.40;99.90
16305;DHT22;8261;47.678;-122.174;2022-08-21T04:31:08;21.40;99.90
16305;DHT22;8261;47.678;-122.174;2022-08-21T04:33:39;21.40;99.90
16305;DHT22;8261;47.678;-122.174;2022-08-21T04:36:11;21.30;99.90
16305;DHT22;8261;47.678;-122.174;2022-08-21T04:38:47;21.20;99.90
16305;DHT22;8261;47.678;-122.174;2022-08-21T04:41:50;21.20;99.90
16305;DHT22;8261;47.678;-122.174;2022-08-21T04:44:21;21.10;99.90
16305;DHT22;8261;47.678;-122.174;2022-08-21T04:46:53;21.10;99.90
16305;DHT22;8261;47.678;-122.174;2022-08-21T04:49:41;21.10;99.90
16305;DHT22;8261;47.678;-122.174;2022-08-21T04:52:14;21.20;99.90
16305;DHT22;8261;47.678;-122.174;2022-08-21T04:54:49;21.20;99.90
16305;DHT22;8261;47.678;-122.174;2022-08-21T04:57:29;21.10;99.90
16305;DHT22;8261;47.678;-122.174;2022-08-21T05:00:17;21.20;99.90
16305;DHT22;8261;47.678;-122.174;2022-08-21T05:03:16;21.10;99.90
16305;DHT22;8261;47.678;-122.174;2022-08-21T05:05:51;21.10;99.90
16305;DHT22;8261;47.678;-122.174;2022-08-21T05:08:24;21.00;99.90
16305;DHT22;8261;47.678;-122.174;2022-08-21T05:10:56;21.00;99.90
16305;DHT22;8261;47.678;-122.174;2022-08-21T05:13:55;21.00;99.90
16305;DHT22;8261;47.678;-122.174;2022-08-21T05:16:27;20.90;99.90
16305;DHT22;8261;47.678;-122.174;2022-08-21T05:19:04;20.90;99.90
16305;DHT22;8261;47.678;-122.174;2022-08-21T05:21:38;20.90;99.90
16305;DHT22;8261;47.678;-122.174;2022-08-21T05:24:10;20.80;99.90
16305;DHT22;8261;47.678;-122.174;2022-08-21T05:26:42;20.80;99.90
16305;DHT22;8261;47.678;-122.174;2022-08-21T05:29:16;20.80;99.90
16305;DHT22;8261;47.678;-122.174;2022-08-21T05:31:49;20.80;99.90
16305;DHT22;8261;47.678;-122.174;2022-08-21T05:34:21;20.70;99.90
16305;DHT22;8261;47.678;-122.174;2022-08-21T05:36:53;20.60;99.90
16305;DHT22;8261;47.678;-122.174;2022-08-21T05:39:24;20.60;99.90
16305;DHT22;8261;47.678;-122.174;2022-08-21T05:42:16;20.60;99.90
16305;DHT22;8261;47.678;-122.174;2022-08-21T05:44:52;20.60;99.90
16305;DHT22;8261;47.678;-122.174;2022-08-21T05:47:23;20.60;99.90
16305;DHT22;8261;47.678;-122.174;2022-08-21T05:50:05;20.70;99.90
16305;DHT22;8261;47.678;-122.174;2022-08-21T05:52:36;20.70;99.90
16305;DHT22;8261;47.678;-122.174;2022-08-21T05:55:08;20.70;99.90
16305;DHT22;8261;47.678;-122.174;2022-08-21T05:57:39;20.70;99.90
16305;DHT22;8261;47.678;-122.174;2022-08-21T06:00:15;20.70;99.90
16305;DHT22;8261;47.678;-122.174;2022-08-21T06:02:46;20.70;99.90
16305;DHT22;8261;47.678;-122.174;2022-08-21T06:05:19;20.70;99.90
16305;DHT22;8261;47.678;-122.174;2022-08-21T06:08:04;20.70;99.90
16305;DHT22;8261;47.678;-122.174;2022-08-21T06:10:36;20.60;99.90
16305;DHT22;8261;47.678;-122.174;2022-08-21T06:13:08;20.60;99.90
16305;DHT22;8261;47.678;-122.174;2022-08-21T06:15:42;20.60;99.90
16305;DHT22;8261;47.678;-122.174;2022-08-21T06:18:13;20.60;99.90
16305;DHT22;8261;47.678;-122.174;2022-08-21T06:20:45;20.70;99.90
16305;DHT22;8261;47.678;-122.174;2022-08-21T06:23:16;20.70;99.90
16305;DHT22;8261;47.678;-122.174;2022-08-21T06:26:00;20.70;99.90
16305;DHT22;8261;47.678;-122.174;2022-08-21T06:28:34;20.70;99.90
16305;DHT22;8261;47.678;-122.174;2022-08-21T06:31:13;20.70;99.90
16305;DHT22;8261;47.678;-122.174;2022-08-21T06:33:46;20.70;99.90
16305;DHT22;8261;47.678;-122.174;2022-08-21T06:36:19;20.70;99.90
16305;DHT22;8261;47.678;-122.174;2022-08-21T06:38:51;20.70;99.90
16305;DHT22;8261;47.678;-122.174;2022-08-21T06:41:24;20.70;99.90
16305;DHT22;8261;47.678;-122.174;2022-08-21T06:43:56;20.70;99.90
16305;DHT22;8261;47.678;-122.174;2022-08-21T06:46:30;20.70;99.90
16305;DHT22;8261;47.678;-122.174;2022-08-21T06:49:03;20.70;99.90
16305;DHT22;8261;47.678;-122.174;2022-08-21T06:51:49;20.70;99.90
16305;DHT22;8261;47.678;-122.174;2022-08-21T06:54:21;20.70;99.90
16305;DHT22;8261;47.678;-122.174;2022-08-21T06:56:52;20.70;99.90
16305;DHT22;8261;47.678;-122.174;2022-08-21T06:59:26;20.70;99.90
16305;DHT22;8261;47.678;-122.174;2022-08-21T07:02:00;20.70;99.90
16305;DHT22;8261;47.678;-122.174;2022-08-21T07:04:31;20.70;99.90
16305;DHT22;8261;47.678;-122.174;2022-08-21T07:07:04;20.70;99.90
16305;DHT22;8261;47.678;-122.174;2022-08-21T07:09:36;20.60;99.90
16305;DHT22;8261;47.678;-122.174;2022-08-21T07:12:07;20.30;99.90
16305;DHT22;8261;47.678;-122.174;2022-08-21T07:14:39;20.30;99.90
16305;DHT22;8261;47.678;-122.174;2022-08-21T07:17:13;20.30;99.90
16305;DHT22;8261;47.678;-122.174;2022-08-21T07:19:44;20.30;99.90
16305;DHT22;8261;47.678;-122.174;2022-08-21T07:22:17;20.30;99.90
16305;DHT22;8261;47.678;-122.174;2022-08-21T07:24:50;20.30;99.90
16305;DHT22;8261;47.678;-122.174;2022-08-21T07:27:22;20.30;99.90
16305;DHT22;8261;47.678;-122.174;2022-08-21T07:29:54;20.30;99.90
16305;DHT22;8261;47.678;-122.174;2022-08-21T07:32:27;20.30;99.90
16305;DHT22;8261;47.678;-122.174;2022-08-21T07:34:59;20.30;99.90
16305;DHT22;8261;47.678;-122.174;2022-08-21T07:37:30;20.30;99.90
16305;DHT22;8261;47.678;-122.174;2022-08-21T07:40:03;20.30;99.90
16305;DHT22;8261;47.678;-122.174;2022-08-21T07:42:34;20.30;99.90
16305;DHT22;8261;47.678;-122.174;2022-08-21T07:45:10;20.30;99.90
16305;DHT22;8261;47.678;-122.174;2022-08-21T07:47:44;20.30;99.90
16305;DHT22;8261;47.678;-122.174;2022-08-21T07:50:15;20.30;99.90
16305;DHT22;8261;47.678;-122.174;2022-08-21T07:52:47;20.30;99.90
16305;DHT22;8261;47.678;-122.174;2022-08-21T07:55:20;20.10;99.90
16305;DHT22;8261;47.678;-122.174;2022-08-21T07:57:52;20.00;99.90
16305;DHT22;8261;47.678;-122.174;2022-08-21T08:00:26;19.90;99.90
16305;DHT22;8261;47.678;-122.174;2022-08-21T08:03:00;19.90;99.90
16305;DHT22;8261;47.678;-122.174;2022-08-21T08:05:32;19.90;99.90
16305;DHT22;8261;47.678;-122.174;2022-08-21T08:08:06;20.00;99.90
16305;DHT22;8261;47.678;-122.174;2022-08-21T08:10:37;20.00;99.90
16305;DHT22;8261;47.678;-122.174;2022-08-21T08:13:10;19.90;99.90
16305;DHT22;8261;47.678;-122.174;2022-08-21T08:15:42;19.80;99.90
16305;DHT22;8261;47.678;-122.174;2022-08-21T08:18:17;19.80;99.90
16305;DHT22;8261;47.678;-122.174;2022-08-21T08:20:47;19.80;99.90
16305;DHT22;8261;47.678;-122.174;2022-08-21T08:23:19;19.80;99.90
16305;DHT22;8261;47.678;-122.174;2022-08-21T08:25:51;19.80;99.90
16305;DHT22;8261;47.678;-122.174;2022-08-21T08:28:23;19.80;99.90
16305;DHT22;8261;47.678;-122.174;2022-08-21T08:30:54;19.80;99.90
16305;DHT22;8261;47.678;-122.174;2022-08-21T08:33:28;19.70;99.90
16305;DHT22;8261;47.678;-122.174;2022-08-21T08:36:00;19.80;99.90
16305;DHT22;8261;47.678;-122.174;2022-08-21T08:38:34;19.80;99.90
16305;DHT22;8261;47.678;-122.174;2022-08-21T08:41:12;19.70;99.90
16305;DHT22;8261;47.678;-122.174;2022-08-21T08:43:49;19.60;99.90
16305;DHT22;8261;47.678;-122.174;2022-08-21T08:46:25;19.50;99.90
16305;DHT22;8261;47.678;-122.174;2022-08-21T08:49:05;19.50;99.90
16305;DHT22;8261;47.678;-122.174;2022-08-21T08:51:43;19.50;99.90
16305;DHT22;8261;47.678;-122.174;2022-08-21T08:54:24;19.40;99.90
16305;DHT22;8261;47.678;-122.174;2022-08-21T08:57:00;19.40;99.90
16305;DHT22;8261;47.678;-122.174;2022-08-21T08:59:39;19.40;99.90
16305;DHT22;8261;47.678;-122.174;2022-08-21T09:02:12;19.30;99.90
16305;DHT22;8261;47.678;-122.174;2022-08-21T09:04:47;19.30;99.90
16305;DHT22;8261;47.678;-122.174;2022-08-21T09:07:27;19.20;99.90
16305;DHT22;8261;47.678;-122.174;2022-08-21T09:10:09;19.20;99.90
16305;DHT22;8261;47.678;-122.174;2022-08-21T09:12:50;19.20;99.90
16305;DHT22;8261;47.678;-122.174;2022-08-21T09:15:29;19.10;99.90
16305;DHT22;8261;47.678;-122.174;2022-08-21T09:18:25;19.10;99.90
16305;DHT22;8261;47.678;-122.174;2022-08-21T09:21:11;19.10;99.90
16305;DHT22;8261;47.678;-122.174;2022-08-21T09:23:53;19.00;99.90
16305;DHT22;8261;47.678;-122.174;2022-08-21T09:26:30;19.10;99.90
16305;DHT22;8261;47.678;-122.174;2022-08-21T09:29:03;19.00;99.90
16305;DHT22;8261;47.678;-122.174;2022-08-21T09:31:36;19.00;99.90
16305;DHT22;8261;47.678;-122.174;2022-08-21T09:34:10;19.00;99.90
16305;DHT22;8261;47.678;-122.174;2022-08-21T09:36:45;19.00;99.90
16305;DHT22;8261;47.678;-122.174;2022-08-21T09:39:25;19.10;99.90
16305;DHT22;8261;47.678;-122.174;2022-08-21T09:41:59;19.00;99.90
16305;DHT22;8261;47.678;-122.174;2022-08-21T09:44:34;19.10;99.90
16305;DHT22;8261;47.678;-122.174;2022-08-21T09:47:09;19.00;99.90
16305;DHT22;8261;47.678;-122.174;2022-08-21T09:49:42;18.90;99.90
16305;DHT22;8261;47.678;-122.174;2022-08-21T09:52:19;18.90;99.90
16305;DHT22;8261;47.678;-122.174;2022-08-21T09:54:54;18.90;99.90
16305;DHT22;8261;47.678;-122.174;2022-08-21T09:57:29;18.90;99.90
16305;DHT22;8261;47.678;-122.174;2022-08-21T10:00:22;18.80;99.90
16305;DHT22;8261;47.678;-122.174;2022-08-21T10:02:56;18.80;99.90
16305;DHT22;8261;47.678;-122.174;2022-08-21T10:05:39;18.80;99.90
16305;DHT22;8261;47.678;-122.174;2022-08-21T10:08:21;18.90;99.90
16305;DHT22;8261;47.678;-122.174;2022-08-21T10:11:01;18.80;99.90
16305;DHT22;8261;47.678;-122.174;2022-08-21T10:14:01;18.80;99.90
16305;DHT22;8261;47.678;-122.174;2022-08-21T10:16:42;18.80;99.90
16305;DHT22;8261;47.678;-122.174;2022-08-21T10:19:25;18.80;99.90
16305;DHT22;8261;47.678;-122.174;2022-08-21T10:22:07;18.80;99.90
16305;DHT22;8261;47.678;-122.174;2022-08-21T10:24:48;18.80;99.90
16305;DHT22;8261;47.678;-122.174;2022-08-21T10:27:29;18.80;99.90
16305;DHT22;8261;47.678;-122.174;2022-08-21T10:30:07;18.80;99.90
16305;DHT22;8261;47.678;-122.174;2022-08-21T10:33:03;18.80;99.90
16305;DHT22;8261;47.678;-122.174;2022-08-21T10:35:45;18.70;99.90
16305;DHT22;8261;47.678;-122.174;2022-08-21T10:38:40;18.70;99.90
16305;DHT22;8261;47.678;-122.174;2022-08-21T10:41:49;18.60;99.90
16305;DHT22;8261;47.678;-122.174;2022-08-21T10:44:53;18.60;99.90
16305;DHT22;8261;47.678;-122.174;2022-08-21T10:47:30;18.60;99.90
16305;DHT22;8261;47.678;-122.174;2022-08-21T10:50:10;18.60;99.90
16305;DHT22;8261;47.678;-122.174;2022-08-21T10:52:57;18.60;99.90
16305;DHT22;8261;47.678;-122.174;2022-08-21T10:55:33;18.50;99.90
16305;DHT22;8261;47.678;-122.174;2022-08-21T10:58:10;18.50;99.90
16305;DHT22;8261;47.678;-122.174;2022-08-21T11:00:45;18.50;99.90
16305;DHT22;8261;47.678;-122.174;2022-08-21T11:03:24;18.50;99.90
16305;DHT22;8261;47.678;-122.174;2022-08-21T11:06:02;18.40;99.90
16305;DHT22;8261;47.678;-122.174;2022-08-21T11:08:39;18.40;99.90
16305;DHT22;8261;47.678;-122.174;2022-08-21T11:11:18;18.30;99.90
16305;DHT22;8261;47.678;-122.174;2022-08-21T11:14:00;18.40;99.90
16305;DHT22;8261;47.678;-122.174;2022-08-21T11:16:36;18.40;99.90
16305;DHT22;8261;47.678;-122.174;2022-08-21T11:19:13;18.40;99.90
16305;DHT22;8261;47.678;-122.174;2022-08-21T11:21:50;18.40;99.90
16305;DHT22;8261;47.678;-122.174;2022-08-21T11:24:32;18.30;99.90
16305;DHT22;8261;47.678;-122.174;2022-08-21T11:27:09;18.30;99.90
16305;DHT22;8261;47.678;-122.174;2022-08-21T11:29:50;18.30;99.90
16305;DHT22;8261;47.678;-122.174;2022-08-21T11:32:46;18.30;99.90
16305;DHT22;8261;47.678;-122.174;2022-08-21T11:35:30;18.40;99.90
16305;DHT22;8261;47.678;-122.174;2022-08-21T11:38:18;18.40;99.90
16305;DHT22;8261;47.678;-122.174;2022-08-21T11:41:20;18.50;99.90
16305;DHT22;8261;47.678;-122.174;2022-08-21T11:44:00;18.50;99.90
16305;DHT22;8261;47.678;-122.174;2022-08-21T11:46:42;18.50;99.90
16305;DHT22;8261;47.678;-122.174;2022-08-21T11:49:29;18.50;99.90
16305;DHT22;8261;47.678;-122.174;2022-08-21T11:52:09;18.50;99.90
16305;DHT22;8261;47.678;-122.174;2022-08-21T11:54:45;18.40;99.90
16305;DHT22;8261;47.678;-122.174;2022-08-21T11:57:21;18.40;99.90
16305;DHT22;8261;47.678;-122.174;2022-08-21T11:59:57;18.40;99.90
16305;DHT22;8261;47.678;-122.174;2022-08-21T12:02:35;18.40;99.90
16305;DHT22;8261;47.678;-122.174;2022-08-21T12:05:09;18.40;99.90
16305;DHT22;8261;47.678;-122.174;2022-08-21T12:07:43;18.40;99.90
16305;DHT22;8261;47.678;-122.174;2022-08-21T12:10:18;18.40;99.90
16305;DHT22;8261;47.678;-122.174;2022-08-21T12:12:50;18.40;99.90
16305;DHT22;8261;47.678;-122.174;2022-08-21T12:15:26;18.40;99.90
16305;DHT22;8261;47.678;-122.174;2022-08-21T12:18:02;18.40;99.90
16305;DHT22;8261;47.678;-122.174;2022-08-21T12:20:42;18.40;99.90
16305;DHT22;8261;47.678;-122.174;2022-08-21T12:23:28;18.50;99.90
16305;DHT22;8261;47.678;-122.174;2022-08-21T12:26:23;18.50;99.90
16305;DHT22;8261;47.678;-122.174;2022-08-21T12:29:14;18.50;99.90
16305;DHT22;8261;47.678;-122.174;2022-08-21T12:31:55;18.40;99.90
16305;DHT22;8261;47.678;-122.174;2022-08-21T12:34:47;18.40;99.90
16305;DHT22;8261;47.678;-122.174;2022-08-21T12:37:24;18.40;99.90
16305;DHT22;8261;47.678;-122.174;2022-08-21T12:40:00;18.30;99.90
16305;DHT22;8261;47.678;-122.174;2022-08-21T12:42:36;18.30;99.90
16305;DHT22;8261;47.678;-122.174;2022-08-21T12:45:17;18.30;99.90
16305;DHT22;8261;47.678;-122.174;2022-08-21T12:47:54;18.30;99.90
16305;DHT22;8261;47.678;-122.174;2022-08-21T12:50:35;18.30;99.90
16305;DHT22;8261;47.678;-122.174;2022-08-21T12:53:09;18.40;99.90
16305;DHT22;8261;47.678;-122.174;2022-08-21T12:55:48;18.20;99.90
16305;DHT22;8261;47.678;-122.174;2022-08-21T12:58:20;18.20;99.90
16305;DHT22;8261;47.678;-122.174;2022-08-21T13:00:54;18.20;99.90
16305;DHT22;8261;47.678;-122.174;2022-08-21T13:03:26;18.20;99.90
16305;DHT22;8261;47.678;-122.174;2022-08-21T13:06:03;18.30;99.90
16305;DHT22;8261;47.678;-122.174;2022-08-21T13:08:36;18.30;99.90
16305;DHT22;8261;47.678;-122.174;2022-08-21T13:11:16;18.30;99.90
16305;DHT22;8261;47.678;-122.174;2022-08-21T13:14:02;18.40;99.90
16305;DHT22;8261;47.678;-122.174;2022-08-21T13:16:36;18.30;99.90
16305;DHT22;8261;47.678;-122.174;2022-08-21T13:19:16;18.30;99.90
16305;DHT22;8261;47.678;-122.174;2022-08-21T13:21:53;18.30;99.90
16305;DHT22;8261;47.678;-122.174;2022-08-21T13:24:26;18.30;99.90
16305;DHT22;8261;47.678;-122.174;2022-08-21T13:27:25;18.40;99.90
16305;DHT22;8261;47.678;-122.174;2022-08-21T13:30:07;18.40;99.90
16305;DHT22;8261;47.678;-122.174;2022-08-21T13:32:43;18.40;99.90
16305;DHT22;8261;47.678;-122.174;2022-08-21T13:35:19;18.40;99.90
16305;DHT22;8261;47.678;-122.174;2022-08-21T13:37:53;18.30;99.90
16305;DHT22;8261;47.678;-122.174;2022-08-21T13:40:29;18.30;99.90
16305;DHT22;8261;47.678;-122.174;2022-08-21T13:43:01;18.40;99.90
16305;DHT22;8261;47.678;-122.174;2022-08-21T13:45:33;18.40;99.90
16305;DHT22;8261;47.678;-122.174;2022-08-21T13:48:05;18.40;99.90
16305;DHT22;8261;47.678;-122.174;2022-08-21T13:50:37;18.40;99.90
16305;DHT22;8261;47.678;-122.174;2022-08-21T13:53:28;18.40;99.90
16305;DHT22;8261;47.678;-122.174;2022-08-21T13:56:00;18.40;99.90
16305;DHT22;8261;47.678;-122.174;2022-08-21T13:58:32;18.40;99.90
16305;DHT22;8261;47.678;-122.174;2022-08-21T14:01:04;18.30;99.90
16305;DHT22;8261;47.678;-122.174;2022-08-21T14:03:38;18.40;99.90
16305;DHT22;8261;47.678;-122.174;2022-08-21T14:06:14;18.40;99.90
16305;DHT22;8261;47.678;-122.174;2022-08-21T14:08:52;18.40;99.90
16305;DHT22;8261;47.678;-122.174;2022-08-21T14:11:27;18.50;99.90
16305;DHT22;8261;47.678;-122.174;2022-08-21T14:14:03;18.50;99.90
16305;DHT22;8261;47.678;-122.174;2022-08-21T14:16:45;18.50;99.90
16305;DHT22;8261;47.678;-122.174;2022-08-21T14:19:23;18.50;99.90
16305;DHT22;8261;47.678;-122.174;2022-08-21T14:21:55;18.50;99.90
16305;DHT22;8261;47.678;-122.174;2022-08-21T14:24:30;18.50;99.90
16305;DHT22;8261;47.678;-122.174;2022-08-21T14:27:06;18.70;99.90
16305;DHT22;8261;47.678;-122.174;2022-08-21T14:29:39;18.60;99.90
16305;DHT22;8261;47.678;-122.174;2022-08-21T14:32:14;18.60;99.90
16305;DHT22;8261;47.678;-122.174;2022-08-21T14:34:52;18.60;99.90
16305;DHT22;8261;47.678;-122.174;2022-08-21T14:37:26;18.70;99.90
16305;DHT22;8261;47.678;-122.174;2022-08-21T14:39:59;18.80;99.90
16305;DHT22;8261;47.678;-122.174;2022-08-21T14:42:31;19.00;99.90
16305;DHT22;8261;47.678;-122.174;2022-08-21T14:45:10;18.90;99.90
16305;DHT22;8261;47.678;-122.174;2022-08-21T14:47:47;19.00;99.90
16305;DHT22;8261;47.678;-122.174;2022-08-21T14:50:19;19.00;99.90
16305;DHT22;8261;47.678;-122.174;2022-08-21T14:52:55;19.10;99.90
16305;DHT22;8261;47.678;-122.174;2022-08-21T14:55:28;19.00;99.90
16305;DHT22;8261;47.678;-122.174;2022-08-21T14:58:21;18.80;99.90
16305;DHT22;8261;47.678;-122.174;2022-08-21T15:00:54;18.90;99.90
16305;DHT22;8261;47.678;-122.174;2022-08-21T15:03:26;19.10;99.90
16305;DHT22;8261;47.678;-122.174;2022-08-21T15:05:59;19.10;99.90
16305;DHT22;8261;47.678;-122.174;2022-08-21T15:08:31;19.10;99.90
16305;DHT22;8261;47.678;-122.174;2022-08-21T15:11:06;19.10;99.90
16305;DHT22;8261;47.678;-122.174;2022-08-21T15:13:47;19.00;99.90
16305;DHT22;8261;47.678;-122.174;2022-08-21T15:16:20;18.90;99.90
16305;DHT22;8261;47.678;-122.174;2022-08-21T15:18:51;19.00;99.90
16305;DHT22;8261;47.678;-122.174;2022-08-21T15:21:22;19.10;99.90
16305;DHT22;8261;47.678;-122.174;2022-08-21T15:23:55;19.20;99.90
16305;DHT22;8261;47.678;-122.174;2022-08-21T15:26:28;19.10;99.90
16305;DHT22;8261;47.678;-122.174;2022-08-21T15:29:00;19.10;99.90
16305;DHT22;8261;47.678;-122.174;2022-08-21T15:31:34;19.00;99.90
16305;DHT22;8261;47.678;-122.174;2022-08-21T15:34:05;19.00;99.90
16305;DHT22;8261;47.678;-122.174;2022-08-21T15:36:39;18.90;99.90
16305;DHT22;8261;47.678;-122.174;2022-08-21T15:39:10;18.90;99.90
16305;DHT22;8261;47.678;-122.174;2022-08-21T15:41:47;19.00;99.90
16305;DHT22;8261;47.678;-122.174;2022-08-21T15:44:19;19.10;99.90
16305;DHT22;8261;47.678;-122.174;2022-08-21T15:47:19;19.10;99.90
16305;DHT22;8261;47.678;-122.174;2022-08-21T15:49:52;19.20;99.90
16305;DHT22;8261;47.678;-122.174;2022-08-21T15:52:24;19.40;99.90
16305;DHT22;8261;47.678;-122.174;2022-08-21T15:55:09;19.40;99.90
16305;DHT22;8261;47.678;-122.174;2022-08-21T15:57:48;19.40;99.90
16305;DHT22;8261;47.678;-122.174;2022-08-21T16:00:25;19.50;99.90
16305;DHT22;8261;47.678;-122.174;2022-08-21T16:03:07;19.60;99.90
16305;DHT22;8261;47.678;-122.174;2022-08-21T16:05:41;19.50;99.90
16305;DHT22;8261;47.678;-122.174;2022-08-21T16:08:13;19.40;99.90
16305;DHT22;8261;47.678;-122.174;2022-08-21T16:10:54;19.50;99.90
16305;DHT22;8261;47.678;-122.174;2022-08-21T16:13:46;19.60;99.90
16305;DHT22;8261;47.678;-122.174;2022-08-21T16:16:43;19.60;99.90
16305;DHT22;8261;47.678;-122.174;2022-08-21T16:19:18;19.70;99.90